Time;durP1;ratioP1;P1;durP2;ratioP2;P2;SDS_P1;SDS_P2;PMS_P1;PMS_P2;Temp;Humidity;BMP_temperature;BMP_pressure;BME280_temperature;BME280_humidity;BME280_pressure;Samples;Min_cycle;Max_cycle;Signal;HPM_P1;HPM_P2
2021/03/22 00:01:00;;;;;;;5.22;2.53;;;;;;;;;;5012358;28;20369;-50
2021/03/22 00:03:27;;;;;;;4.40;2.40;;;;;;;;;;5012140;28;20025;-50
2021/03/22 00:05:53;;;;;;;4.47;2.35;;;;;;;;;;5011935;28;20022;-48
2021/03/22 00:08:21;;;;;;;6.88;2.90;;;;;;;;;;5011879;28;20046;-48
2021/03/22 00:10:47;;;;;;;4.90;2.70;;;;;;;;;;5011830;28;20392;-49
2021/03/22 00:13:15;;;;;;;6.10;3.25;;;;;;;;;;5011794;28;20466;-53
2021/03/22 00:15:41;;;;;;;7.65;4.00;;;;;;;;;;5011659;28;20547;-50
2021/03/22 00:18:09;;;;;;;10.77;5.97;;;;;;;;;;5012022;28;20029;-50
2021/03/22 00:20:35;;;;;;;11.68;6.07;;;;;;;;;;5011756;28;20101;-51
2021/03/22 00:23:01;;;;;;;7.65;4.32;;;;;;;;;;5011598;28;20053;-52
2021/03/22 00:25:27;;;;;;;6.03;3.55;;;;;;;;;;4994209;28;20437;-49
2021/03/22 00:27:54;;;;;;;5.32;3.60;;;;;;;;;;5011910;28;20377;-49
2021/03/22 00:30:21;;;;;;;4.93;2.88;;;;;;;;;;5011684;28;20385;-53
2021/03/22 00:32:48;;;;;;;5.32;3.45;;;;;;;;;;5011634;28;20100;-54
2021/03/22 00:35:14;;;;;;;4.47;2.92;;;;;;;;;;5011545;28;20026;-49
2021/03/22 00:37:40;;;;;;;5.18;3.35;;;;;;;;;;5011476;28;20073;-49
2021/03/22 00:40:07;;;;;;;5.00;2.88;;;;;;;;;;5011586;28;20496;-50
2021/03/22 00:42:33;;;;;;;6.00;3.30;;;;;;;;;;5012082;28;20053;-52
2021/03/22 00:44:59;;;;;;;6.82;3.90;;;;;;;;;;5015693;28;20018;-51
2021/03/22 00:47:25;;;;;;;6.55;3.67;;;;;;;;;;5015641;28;20088;-49
2021/03/22 00:49:51;;;;;;;7.38;4.45;;;;;;;;;;5015611;28;20050;-50
2021/03/22 00:52:17;;;;;;;6.35;4.38;;;;;;;;;;5015192;28;20032;-48
2021/03/22 00:54:43;;;;;;;7.35;4.68;;;;;;;;;;5015159;28;20543;-48
2021/03/22 00:57:10;;;;;;;5.75;4.20;;;;;;;;;;5015504;28;20026;-50
2021/03/22 00:59:37;;;;;;;7.63;4.32;;;;;;;;;;5015248;28;20026;-50
2021/03/22 01:02:06;;;;;;;7.15;4.70;;;;;;;;;;5015399;28;20100;-48
2021/03/22 01:04:32;;;;;;;7.63;4.88;;;;;;;;;;5015054;28;20030;-49
2021/03/22 01:06:58;;;;;;;6.30;4.45;;;;;;;;;;5015075;28;20052;-49
2021/03/22 01:09:24;;;;;;;8.20;4.82;;;;;;;;;;5014827;28;20050;-50
2021/03/22 01:11:51;;;;;;;8.48;5.30;;;;;;;;;;5014944;28;20037;-48
2021/03/22 01:14:17;;;;;;;8.07;4.78;;;;;;;;;;5014882;28;20034;-49
2021/03/22 01:16:43;;;;;;;9.60;5.68;;;;;;;;;;5014859;28;20049;-49
2021/03/22 01:19:14;;;;;;;9.68;4.88;;;;;;;;;;5015056;28;20053;-49
2021/03/22 01:21:42;;;;;;;9.23;5.13;;;;;;;;;;5014698;28;20017;-48
2021/03/22 01:24:10;;;;;;;8.07;5.05;;;;;;;;;;5014748;28;20089;-49
2021/03/22 01:26:36;;;;;;;7.50;4.70;;;;;;;;;;5014748;28;20029;-51
2021/03/22 01:29:07;;;;;;;6.78;4.28;;;;;;;;;;5014861;28;20423;-51
2021/03/22 01:31:34;;;;;;;8.02;4.47;;;;;;;;;;5014620;28;20065;-48
2021/03/22 01:34:00;;;;;;;7.32;4.32;;;;;;;;;;5014723;28;20030;-53
2021/03/22 01:36:27;;;;;;;8.50;5.55;;;;;;;;;;5014638;28;20022;-50
2021/03/22 01:38:55;;;;;;;8.93;6.10;;;;;;;;;;5014453;28;20041;-50
2021/03/22 01:41:24;;;;;;;8.10;5.45;;;;;;;;;;5014819;28;20032;-49
2021/03/22 01:43:50;;;;;;;7.78;4.78;;;;;;;;;;5014401;28;20037;-48
2021/03/22 01:46:16;;;;;;;6.88;4.50;;;;;;;;;;5014329;28;20485;-49
2021/03/22 01:48:42;;;;;;;8.15;4.65;;;;;;;;;;5014229;28;20049;-48
2021/03/22 01:51:09;;;;;;;8.55;5.07;;;;;;;;;;5014160;28;20037;-53
2021/03/22 01:53:35;;;;;;;7.80;5.00;;;;;;;;;;5014033;28;20065;-50
2021/03/22 01:56:09;;;;;;;8.57;5.22;;;;;;;;;;5013315;28;20038;-48
2021/03/22 01:58:35;;;;;;;8.77;5.95;;;;;;;;;;5014179;28;20022;-50
2021/03/22 02:01:01;;;;;;;8.27;5.03;;;;;;;;;;5014248;28;20100;-48
2021/03/22 02:03:28;;;;;;;7.28;4.63;;;;;;;;;;5013956;28;20495;-50
2021/03/22 02:05:54;;;;;;;6.72;4.50;;;;;;;;;;5014007;28;20050;-50
2021/03/22 02:08:22;;;;;;;6.53;4.72;;;;;;;;;;5013582;28;20053;-51
2021/03/22 02:10:48;;;;;;;7.18;4.50;;;;;;;;;;5013876;28;20034;-49
2021/03/22 02:13:16;;;;;;;8.35;5.15;;;;;;;;;;5013864;28;20038;-49
2021/03/22 02:15:44;;;;;;;7.78;5.38;;;;;;;;;;5013657;28;20034;-51
2021/03/22 02:18:23;;;;;;;8.85;5.30;;;;;;;;;;5013755;28;20494;-50
2021/03/22 02:20:49;;;;;;;7.32;5.45;;;;;;;;;;5013670;28;20026;-51
2021/03/22 02:23:15;;;;;;;6.35;4.60;;;;;;;;;;5013456;28;20026;-53
2021/03/22 02:25:57;;;;;;;6.50;4.60;;;;;;;;;;5013521;28;20033;-51
2021/03/22 02:28:52;;;;;;;6.80;4.60;;;;;;;;;;5013442;28;20041;-53
2021/03/22 02:31:18;;;;;;;7.13;4.70;;;;;;;;;;5013493;28;20060;-53
2021/03/22 02:33:47;;;;;;;6.45;4.63;;;;;;;;;;5013427;28;20025;-51
2021/03/22 02:36:31;;;;;;;6.55;4.47;;;;;;;;;;5013315;28;20033;-50
2021/03/22 02:38:58;;;;;;;7.38;4.22;;;;;;;;;;5013221;28;20425;-52
2021/03/22 02:41:24;;;;;;;8.88;5.57;;;;;;;;;;5013530;28;20022;-49
2021/03/22 02:44:11;;;;;;;10.85;6.68;;;;;;;;;;5013263;28;20018;-50
2021/03/22 02:46:37;;;;;;;9.95;6.22;;;;;;;;;;5013177;28;20485;-51
2021/03/22 02:49:05;;;;;;;15.55;8.10;;;;;;;;;;5013305;28;20080;-47
2021/03/22 02:51:54;;;;;;;14.73;7.85;;;;;;;;;;4995486;28;20029;-49
2021/03/22 02:54:24;;;;;;;17.65;9.93;;;;;;;;;;5000714;28;20089;-53
2021/03/22 02:56:54;;;;;;;17.40;9.68;;;;;;;;;;5012986;28;20064;-51
2021/03/22 02:59:31;;;;;;;15.18;8.63;;;;;;;;;;5012937;28;20021;-49
2021/03/22 03:02:02;;;;;;;14.70;7.43;;;;;;;;;;5012879;28;20036;-52
2021/03/22 03:04:30;;;;;;;10.13;5.72;;;;;;;;;;5012775;28;20117;-49
2021/03/22 03:07:00;;;;;;;8.18;4.90;;;;;;;;;;5266531;23;20469;-51
2021/03/22 03:09:28;;;;;;;8.85;5.85;;;;;;;;;;5013075;28;20385;-51
2021/03/22 03:11:55;;;;;;;7.40;5.50;;;;;;;;;;5012735;28;20026;-50
2021/03/22 03:14:21;;;;;;;10.80;6.10;;;;;;;;;;5012733;28;20112;-51
2021/03/22 03:16:48;;;;;;;10.68;7.03;;;;;;;;;;5012707;28;20026;-51
2021/03/22 03:19:14;;;;;;;11.48;7.07;;;;;;;;;;5012890;28;20022;-48
2021/03/22 03:21:40;;;;;;;9.20;6.10;;;;;;;;;;5012466;28;20029;-52
2021/03/22 03:24:07;;;;;;;9.20;5.88;;;;;;;;;;5013040;28;20032;-47
2021/03/22 03:26:33;;;;;;;7.95;5.70;;;;;;;;;;5012669;28;20061;-52
2021/03/22 03:28:59;;;;;;;6.70;4.40;;;;;;;;;;5012472;28;20022;-48
2021/03/22 03:31:26;;;;;;;6.65;4.47;;;;;;;;;;5012408;28;20033;-48
2021/03/22 03:33:52;;;;;;;5.80;4.50;;;;;;;;;;5012398;28;20030;-51
2021/03/22 03:36:18;;;;;;;6.32;4.22;;;;;;;;;;5012190;28;20033;-50
2021/03/22 03:38:44;;;;;;;5.35;3.58;;;;;;;;;;4994644;28;20117;-48
2021/03/22 03:41:10;;;;;;;5.75;4.00;;;;;;;;;;5012308;28;20026;-49
2021/03/22 03:43:37;;;;;;;5.65;3.88;;;;;;;;;;5012355;28;20036;-48
2021/03/22 03:46:03;;;;;;;6.97;4.88;;;;;;;;;;5012228;28;20032;-50
2021/03/22 03:48:29;;;;;;;6.75;4.22;;;;;;;;;;5012152;28;20447;-51
2021/03/22 03:50:57;;;;;;;6.88;4.63;;;;;;;;;;5011926;28;20026;-48
2021/03/22 03:53:23;;;;;;;12.40;7.75;;;;;;;;;;5012368;28;20022;-50
2021/03/22 03:55:49;;;;;;;17.27;8.15;;;;;;;;;;5012003;28;20181;-48
2021/03/22 03:58:15;;;;;;;11.05;6.60;;;;;;;;;;5012005;28;20083;-51
2021/03/22 04:00:43;;;;;;;9.05;4.72;;;;;;;;;;5011925;28;20061;-52
2021/03/22 04:03:15;;;;;;;10.45;4.72;;;;;;;;;;5012323;28;20018;-51
2021/03/22 04:05:41;;;;;;;9.55;4.43;;;;;;;;;;5011728;28;20030;-50
2021/03/22 04:08:07;;;;;;;8.10;3.00;;;;;;;;;;5011906;28;20033;-49
2021/03/22 04:10:33;;;;;;;3.65;1.67;;;;;;;;;;5011885;28;20032;-53
2021/03/22 04:12:59;;;;;;;2.83;1.50;;;;;;;;;;5011836;28;20032;-48
2021/03/22 04:15:25;;;;;;;2.10;1.23;;;;;;;;;;5011750;28;20041;-49
2021/03/22 04:17:51;;;;;;;1.88;1.00;;;;;;;;;;5011268;28;20037;-53
2021/03/22 04:20:18;;;;;;;1.70;1.05;;;;;;;;;;5011667;28;20030;-50
2021/03/22 04:22:44;;;;;;;1.92;1.20;;;;;;;;;;5011835;28;20061;-50
2021/03/22 04:25:11;;;;;;;2.75;1.42;;;;;;;;;;5011835;28;20022;-51
2021/03/22 04:27:37;;;;;;;4.60;2.13;;;;;;;;;;5012060;28;20496;-48
2021/03/22 04:30:04;;;;;;;4.85;1.90;;;;;;;;;;5011644;28;20018;-53
2021/03/22 04:32:30;;;;;;;3.47;1.67;;;;;;;;;;5011612;28;20065;-52
2021/03/22 04:34:56;;;;;;;4.20;1.90;;;;;;;;;;5011548;28;20072;-52
2021/03/22 04:37:23;;;;;;;6.80;2.70;;;;;;;;;;5011526;28;20026;-49
2021/03/22 04:39:49;;;;;;;5.50;2.33;;;;;;;;;;5011820;28;20018;-49
2021/03/22 04:42:15;;;;;;;7.88;3.60;;;;;;;;;;5011566;28;20473;-51
2021/03/22 04:44:41;;;;;;;6.60;3.20;;;;;;;;;;5011727;28;20022;-52
2021/03/22 04:47:07;;;;;;;5.18;3.00;;;;;;;;;;5011505;28;20030;-51
2021/03/22 04:49:33;;;;;;;8.05;3.85;;;;;;;;;;5011482;28;20121;-49
2021/03/22 04:51:59;;;;;;;4.90;2.63;;;;;;;;;;5011377;28;20028;-49
2021/03/22 04:54:25;;;;;;;2.40;1.20;;;;;;;;;;5011423;28;20555;-53
2021/03/22 04:56:52;;;;;;;2.40;1.10;;;;;;;;;;5011411;28;20025;-51
2021/03/22 04:59:18;;;;;;;2.03;0.95;;;;;;;;;;5011528;28;20099;-51
2021/03/22 05:01:44;;;;;;;4.25;1.80;;;;;;;;;;5011455;28;20018;-50
2021/03/22 05:04:10;;;;;;;5.80;2.45;;;;;;;;;;5011793;28;20064;-48
2021/03/22 05:06:36;;;;;;;4.43;2.20;;;;;;;;;;5011071;28;20053;-51
2021/03/22 05:09:02;;;;;;;5.57;2.40;;;;;;;;;;5011635;28;20022;-52
2021/03/22 05:11:28;;;;;;;6.57;3.10;;;;;;;;;;5011372;28;20054;-48
2021/03/22 05:13:55;;;;;;;6.72;3.05;;;;;;;;;;5011301;28;20029;-55
2021/03/22 05:16:21;;;;;;;6.18;2.80;;;;;;;;;;5011245;28;20037;-52
2021/03/22 05:18:47;;;;;;;8.82;4.28;;;;;;;;;;5011275;28;20025;-52
2021/03/22 05:21:14;;;;;;;5.28;2.70;;;;;;;;;;5011356;28;20392;-52
2021/03/22 05:23:41;;;;;;;5.95;2.38;;;;;;;;;;5011044;28;20438;-49
2021/03/22 05:26:08;;;;;;;8.23;4.07;;;;;;;;;;5011239;28;20022;-48
2021/03/22 05:28:35;;;;;;;7.28;3.78;;;;;;;;;;5011172;28;20025;-49
2021/03/22 05:31:02;;;;;;;7.53;4.70;;;;;;;;;;5013862;28;20046;-48
2021/03/22 05:33:28;;;;;;;8.55;4.43;;;;;;;;;;5014863;28;20034;-50
2021/03/22 05:35:56;;;;;;;8.65;4.40;;;;;;;;;;5014513;28;20113;-50
2021/03/22 05:38:23;;;;;;;11.80;5.13;;;;;;;;;;5014407;28;20025;-51
2021/03/22 05:40:49;;;;;;;14.32;6.38;;;;;;;;;;5014438;28;20037;-50
2021/03/22 05:43:41;;;;;;;14.90;6.65;;;;;;;;;;5014614;28;20032;-50
2021/03/22 05:46:26;;;;;;;14.55;6.55;;;;;;;;;;5014608;28;20095;-50
2021/03/22 05:48:58;;;;;;;18.35;7.30;;;;;;;;;;5014348;28;20495;-53
2021/03/22 05:51:33;;;;;;;17.30;6.15;;;;;;;;;;5014285;28;20030;-48
2021/03/22 05:54:15;;;;;;;13.40;5.55;;;;;;;;;;5014037;28;20045;-52
2021/03/22 05:56:59;;;;;;;16.15;7.28;;;;;;;;;;5014187;28;20030;-54
2021/03/22 05:59:44;;;;;;;19.88;8.68;;;;;;;;;;5014118;28;20029;-52
2021/03/22 06:02:21;;;;;;;16.23;7.78;;;;;;;;;;5014108;28;20377;-50
2021/03/22 06:04:51;;;;;;;18.42;8.00;;;;;;;;;;5014192;28;20026;-52
2021/03/22 06:07:20;;;;;;;21.20;8.45;;;;;;;;;;5013833;28;20046;-52
2021/03/22 06:09:52;;;;;;;18.92;8.20;;;;;;;;;;5014084;28;20056;-54
2021/03/22 06:12:31;;;;;;;18.37;7.87;;;;;;;;;;5013939;28;20096;-49
2021/03/22 06:15:16;;;;;;;12.30;5.70;;;;;;;;;;5013251;28;20302;-54
2021/03/22 06:17:48;;;;;;;14.13;6.43;;;;;;;;;;5013943;28;20112;-50
2021/03/22 06:20:26;;;;;;;7.22;3.47;;;;;;;;;;5014103;28;20028;-50
2021/03/22 06:23:19;;;;;;;4.53;2.03;;;;;;;;;;5014234;28;20478;-48
2021/03/22 06:25:45;;;;;;;8.27;4.10;;;;;;;;;;4976907;28;20382;-50
2021/03/22 06:28:14;;;;;;;8.02;3.42;;;;;;;;;;5013997;28;20064;-48
2021/03/22 06:30:41;;;;;;;5.95;2.30;;;;;;;;;;5014426;28;20108;-50
2021/03/22 06:33:07;;;;;;;4.22;2.33;;;;;;;;;;5014127;28;20547;-51
2021/03/22 06:35:35;;;;;;;6.25;2.63;;;;;;;;;;5013923;28;20469;-50
2021/03/22 06:38:02;;;;;;;3.47;1.70;;;;;;;;;;5010363;28;20033;-54
2021/03/22 06:40:28;;;;;;;7.22;3.15;;;;;;;;;;5009507;28;20030;-54
2021/03/22 06:43:09;;;;;;;18.17;8.02;;;;;;;;;;4976467;28;20030;-51
2021/03/22 06:45:41;;;;;;;5.65;2.53;;;;;;;;;;4994384;28;20026;-51
2021/03/22 06:48:15;;;;;;;6.75;3.40;;;;;;;;;;4993970;28;20488;-49
2021/03/22 06:50:42;;;;;;;7.55;2.65;;;;;;;;;;4994281;28;20030;-53
2021/03/22 06:53:08;;;;;;;6.55;3.05;;;;;;;;;;4994020;28;20034;-51
2021/03/22 06:55:40;;;;;;;4.35;2.10;;;;;;;;;;4993984;28;20042;-51
2021/03/22 06:58:06;;;;;;;14.23;5.85;;;;;;;;;;4993989;28;20023;-50
2021/03/22 07:00:36;;;;;;;11.60;5.10;;;;;;;;;;4976338;28;20462;-48
2021/03/22 07:03:20;;;;;;;7.35;3.35;;;;;;;;;;4997391;28;20079;-50
2021/03/22 07:05:46;;;;;;;5.07;2.58;;;;;;;;;;5012898;28;20131;-52
2021/03/22 07:08:18;;;;;;;8.00;3.75;;;;;;;;;;5010719;28;20040;-52
2021/03/22 07:10:54;;;;;;;7.82;3.80;;;;;;;;;;5012349;28;20057;-51
2021/03/22 07:13:20;;;;;;;4.75;2.33;;;;;;;;;;5012161;28;20521;-50
2021/03/22 07:15:47;;;;;;;7.45;2.90;;;;;;;;;;5013297;28;20034;-54
2021/03/22 07:18:15;;;;;;;6.70;3.35;;;;;;;;;;5013108;28;20022;-52
2021/03/22 07:20:42;;;;;;;12.60;6.25;;;;;;;;;;5012872;28;20030;-50
2021/03/22 07:23:31;;;;;;;10.35;5.13;;;;;;;;;;5012700;28;20030;-49
2021/03/22 07:26:01;;;;;;;12.23;4.75;;;;;;;;;;5011514;28;20380;-49
2021/03/22 07:28:40;;;;;;;17.45;8.00;;;;;;;;;;5008922;28;20022;-52
2021/03/22 07:31:18;;;;;;;13.02;7.10;;;;;;;;;;4993213;28;20080;-53
2021/03/22 07:33:51;;;;;;;12.25;6.28;;;;;;;;;;5011988;28;20045;-54
2021/03/22 07:36:23;;;;;;;12.77;6.28;;;;;;;;;;5012483;28;20037;-53
2021/03/22 07:39:02;;;;;;;15.30;7.65;;;;;;;;;;5009868;28;20022;-53
2021/03/22 07:41:34;;;;;;;10.93;6.20;;;;;;;;;;5010065;28;20038;-51
2021/03/22 07:44:18;;;;;;;8.00;3.97;;;;;;;;;;5009902;28;20116;-52
2021/03/22 07:47:02;;;;;;;11.38;5.75;;;;;;;;;;5003364;28;20164;-52
2021/03/22 07:49:41;;;;;;;11.32;5.10;;;;;;;;;;5001396;28;20038;-54
2021/03/22 07:52:16;;;;;;;11.98;5.55;;;;;;;;;;5002012;28;20026;-52
2021/03/22 07:55:00;;;;;;;17.65;8.93;;;;;;;;;;4998363;28;20038;-52
2021/03/22 07:57:29;;;;;;;16.15;8.10;;;;;;;;;;4992918;28;20037;-52
2021/03/22 07:59:58;;;;;;;14.90;6.93;;;;;;;;;;5000373;28;20059;-54
2021/03/22 08:02:33;;;;;;;19.00;9.35;;;;;;;;;;5001656;28;20031;-55
2021/03/22 08:05:15;;;;;;;18.80;9.80;;;;;;;;;;5001622;28;20026;-57
2021/03/22 08:07:44;;;;;;;14.07;6.60;;;;;;;;;;5002894;28;20050;-52
2021/03/22 08:10:40;;;;;;;14.85;8.55;;;;;;;;;;5011879;28;20036;-58
2021/03/22 08:13:24;;;;;;;10.63;5.10;;;;;;;;;;5011249;28;20344;-51
2021/03/22 08:16:05;;;;;;;14.05;6.47;;;;;;;;;;5007720;28;20048;-53
2021/03/22 08:18:41;;;;;;;11.40;5.95;;;;;;;;;;5004936;28;20077;-55
2021/03/22 08:21:12;;;;;;;11.80;5.10;;;;;;;;;;5010720;28;20484;-52
2021/03/22 08:23:43;;;;;;;10.80;5.07;;;;;;;;;;5010835;28;20026;-56
2021/03/22 08:26:14;;;;;;;11.02;5.20;;;;;;;;;;5012293;28;20030;-52
2021/03/22 08:29:07;;;;;;;9.35;4.90;;;;;;;;;;4992104;28;20072;-50
2021/03/22 08:31:36;;;;;;;13.13;5.55;;;;;;;;;;4974072;28;20124;-54
2021/03/22 08:34:09;;;;;;;12.73;7.07;;;;;;;;;;5006305;28;20589;-52
2021/03/22 08:36:47;;;;;;;13.35;6.30;;;;;;;;;;5007837;28;20599;-56
2021/03/22 08:39:39;;;;;;;12.82;6.45;;;;;;;;;;5009138;28;20056;-51
2021/03/22 08:42:08;;;;;;;12.25;6.95;;;;;;;;;;5010848;28;20034;-57
2021/03/22 08:44:41;;;;;;;15.68;7.55;;;;;;;;;;5008939;28;20061;-53
2021/03/22 08:47:30;;;;;;;17.30;8.43;;;;;;;;;;5009613;28;20113;-53
2021/03/22 08:49:58;;;;;;;18.60;9.68;;;;;;;;;;4972623;28;20350;-56
2021/03/22 08:52:31;;;;;;;11.70;6.63;;;;;;;;;;5010424;28;20028;-55
2021/03/22 08:55:09;;;;;;;14.70;7.95;;;;;;;;;;5011683;28;20053;-51
2021/03/22 08:57:53;;;;;;;13.60;7.40;;;;;;;;;;5011836;28;20072;-50
2021/03/22 09:00:28;;;;;;;13.63;6.75;;;;;;;;;;5011667;28;20041;-50
2021/03/22 09:02:56;;;;;;;14.15;6.75;;;;;;;;;;5012214;28;20045;-53
2021/03/22 09:05:23;;;;;;;15.30;8.60;;;;;;;;;;5014860;28;20481;-53
2021/03/22 09:07:50;;;;;;;15.30;7.88;;;;;;;;;;5013756;28;20049;-53
2021/03/22 09:10:19;;;;;;;16.52;7.95;;;;;;;;;;5004010;28;20037;-51
2021/03/22 09:12:46;;;;;;;13.38;7.13;;;;;;;;;;4995874;28;20027;-52
2021/03/22 09:15:13;;;;;;;13.10;6.18;;;;;;;;;;4995629;28;20029;-56
2021/03/22 09:17:45;;;;;;;11.57;6.80;;;;;;;;;;5013800;28;20096;-57
2021/03/22 09:20:17;;;;;;;15.13;8.02;;;;;;;;;;5015115;28;20372;-51
2021/03/22 09:22:51;;;;;;;15.55;8.65;;;;;;;;;;5003041;28;20026;-48
2021/03/22 09:25:36;;;;;;;12.90;7.72;;;;;;;;;;5003043;28;20028;-48
2021/03/22 09:28:21;;;;;;;12.98;7.38;;;;;;;;;;5013207;28;20021;-49
2021/03/22 09:31:06;;;;;;;14.85;9.30;;;;;;;;;;5008434;28;20473;-54
2021/03/22 09:33:53;;;;;;;18.50;11.35;;;;;;;;;;5004437;28;20113;-49
2021/03/22 09:36:31;;;;;;;13.90;8.50;;;;;;;;;;5007242;28;20046;-50
2021/03/22 09:38:58;;;;;;;14.02;7.55;;;;;;;;;;5005509;28;20029;-53
2021/03/22 09:41:43;;;;;;;13.65;7.35;;;;;;;;;;4995157;28;20023;-56
2021/03/22 09:44:11;;;;;;;15.85;8.63;;;;;;;;;;4995056;28;20064;-55
2021/03/22 09:46:38;;;;;;;12.00;7.40;;;;;;;;;;4995379;28;20034;-50
2021/03/22 09:49:12;;;;;;;12.50;7.60;;;;;;;;;;4995268;28;20109;-54
2021/03/22 09:51:43;;;;;;;13.98;8.20;;;;;;;;;;4994978;28;20041;-54
2021/03/22 09:54:18;;;;;;;12.38;6.88;;;;;;;;;;4997407;28;20485;-52
2021/03/22 09:57:04;;;;;;;10.23;5.72;;;;;;;;;;5014220;28;20462;-55
2021/03/22 09:59:35;;;;;;;12.52;7.80;;;;;;;;;;5014539;28;20098;-53
2021/03/22 10:02:21;;;;;;;13.02;7.53;;;;;;;;;;5014501;28;20038;-61
2021/03/22 10:05:06;;;;;;;12.63;8.20;;;;;;;;;;5014428;28;20014;-53
2021/03/22 10:07:32;;;;;;;12.57;7.97;;;;;;;;;;4994861;28;20049;-52
2021/03/22 10:10:00;;;;;;;9.30;5.32;;;;;;;;;;4995262;28;20023;-50
2021/03/22 10:12:35;;;;;;;15.20;9.07;;;;;;;;;;4995260;28;20043;-54
2021/03/22 10:15:24;;;;;;;11.88;6.72;;;;;;;;;;4994863;28;20034;-53
2021/03/22 10:17:58;;;;;;;12.77;6.80;;;;;;;;;;4985124;28;20031;-50
2021/03/22 10:20:24;;;;;;;18.40;9.50;;;;;;;;;;4977274;28;20485;-53
2021/03/22 10:22:53;;;;;;;14.48;8.30;;;;;;;;;;4994711;28;20034;-54
2021/03/22 10:25:26;;;;;;;15.57;8.60;;;;;;;;;;4992403;28;20501;-52
2021/03/22 10:27:59;;;;;;;12.27;7.38;;;;;;;;;;4994958;28;20037;-53
2021/03/22 10:30:25;;;;;;;10.02;5.90;;;;;;;;;;4995005;28;20134;-50
2021/03/22 10:32:56;;;;;;;17.27;9.48;;;;;;;;;;4994868;28;20412;-48
2021/03/22 10:35:23;;;;;;;14.15;7.78;;;;;;;;;;4994454;28;20041;-51
2021/03/22 10:37:51;;;;;;;15.82;9.25;;;;;;;;;;4994685;28;20046;-49
2021/03/22 10:40:20;;;;;;;15.73;7.63;;;;;;;;;;4995785;28;20036;-50
2021/03/22 10:42:46;;;;;;;13.90;6.90;;;;;;;;;;5008673;28;20030;-47
2021/03/22 10:45:24;;;;;;;11.38;6.68;;;;;;;;;;5002031;28;20030;-55
2021/03/22 10:47:51;;;;;;;15.13;8.40;;;;;;;;;;5001615;28;20027;-53
2021/03/22 10:50:18;;;;;;;14.18;8.18;;;;;;;;;;5001853;28;20069;-51
2021/03/22 10:52:44;;;;;;;15.10;8.02;;;;;;;;;;5003714;28;20057;-47
2021/03/22 10:55:24;;;;;;;13.02;7.15;;;;;;;;;;5004709;28;20044;-54
2021/03/22 10:57:50;;;;;;;16.98;8.15;;;;;;;;;;5004031;28;20025;-55
2021/03/22 11:00:22;;;;;;;16.45;8.13;;;;;;;;;;5002746;28;20034;-50
2021/03/22 11:02:50;;;;;;;16.02;8.57;;;;;;;;;;5005486;28;20470;-53
2021/03/22 11:05:18;;;;;;;19.08;10.00;;;;;;;;;;5006965;28;20464;-56
2021/03/22 11:07:54;;;;;;;11.10;6.90;;;;;;;;;;5006773;28;20038;-55
2021/03/22 11:10:21;;;;;;;14.65;9.10;;;;;;;;;;5013189;28;20061;-48
2021/03/22 11:12:49;;;;;;;13.45;7.25;;;;;;;;;;5013647;28;20419;-51
2021/03/22 11:15:18;;;;;;;13.55;7.45;;;;;;;;;;5012664;28;20029;-48
2021/03/22 11:17:48;;;;;;;13.43;7.15;;;;;;;;;;5013410;28;20072;-51
2021/03/22 11:20:15;;;;;;;13.00;7.15;;;;;;;;;;5013128;28;20026;-54
2021/03/22 11:22:43;;;;;;;12.77;6.80;;;;;;;;;;5013070;28;20018;-53
2021/03/22 11:25:28;;;;;;;12.82;6.75;;;;;;;;;;5013171;28;20049;-50
2021/03/22 11:28:04;;;;;;;11.95;7.25;;;;;;;;;;5013059;28;20462;-55
2021/03/22 11:30:39;;;;;;;15.02;8.45;;;;;;;;;;5013347;28;20029;-55
2021/03/22 11:33:23;;;;;;;14.65;7.32;;;;;;;;;;5013229;28;20453;-49
2021/03/22 11:36:02;;;;;;;16.85;8.27;;;;;;;;;;5013017;28;20362;-54
2021/03/22 11:38:33;;;;;;;20.35;9.23;;;;;;;;;;5013001;28;20030;-53
2021/03/22 11:40:59;;;;;;;18.52;9.35;;;;;;;;;;5013103;28;20026;-52
2021/03/22 11:43:29;;;;;;;13.80;7.32;;;;;;;;;;4995545;28;20027;-53
2021/03/22 11:45:55;;;;;;;16.45;8.85;;;;;;;;;;5013255;28;20030;-47
2021/03/22 11:48:21;;;;;;;17.88;9.70;;;;;;;;;;5012899;28;20474;-51
2021/03/22 11:50:59;;;;;;;19.70;11.07;;;;;;;;;;5012976;28;20049;-52
2021/03/22 11:53:26;;;;;;;13.20;8.15;;;;;;;;;;5013032;28;20450;-55
2021/03/22 11:56:20;;;;;;;13.63;7.88;;;;;;;;;;5012904;28;20362;-50
2021/03/22 11:58:47;;;;;;;16.63;9.15;;;;;;;;;;5012783;28;20129;-52
2021/03/22 12:01:18;;;;;;;16.98;9.93;;;;;;;;;;5012768;28;20025;-48
2021/03/22 12:03:45;;;;;;;12.55;6.90;;;;;;;;;;5012778;28;20130;-52
2021/03/22 12:06:12;;;;;;;12.00;7.43;;;;;;;;;;5012460;28;20053;-51
2021/03/22 12:08:43;;;;;;;12.77;7.10;;;;;;;;;;5012773;28;20030;-49
2021/03/22 12:11:28;;;;;;;10.95;6.65;;;;;;;;;;5012528;28;20030;-53
2021/03/22 12:13:55;;;;;;;9.80;5.68;;;;;;;;;;5012607;28;20117;-50
2021/03/22 12:16:23;;;;;;;11.85;7.15;;;;;;;;;;5012621;28;20034;-53
2021/03/22 12:18:50;;;;;;;11.93;6.93;;;;;;;;;;5012909;28;20353;-54
2021/03/22 12:21:16;;;;;;;16.15;9.45;;;;;;;;;;5012998;28;20061;-56
2021/03/22 12:23:43;;;;;;;14.98;8.68;;;;;;;;;;4994201;28;20473;-54
2021/03/22 12:26:12;;;;;;;11.60;6.82;;;;;;;;;;5012661;28;20357;-55
2021/03/22 12:28:53;;;;;;;11.45;7.00;;;;;;;;;;5012625;28;20053;-56
2021/03/22 12:31:21;;;;;;;11.43;7.20;;;;;;;;;;5012546;28;20529;-55
2021/03/22 12:33:47;;;;;;;13.57;8.18;;;;;;;;;;5012534;28;20105;-52
2021/03/22 12:36:14;;;;;;;12.93;6.93;;;;;;;;;;5012641;28;20045;-51
2021/03/22 12:38:40;;;;;;;10.73;6.20;;;;;;;;;;5013141;28;20092;-54
2021/03/22 12:41:06;;;;;;;10.23;6.55;;;;;;;;;;5016655;28;20342;-54
2021/03/22 12:43:33;;;;;;;13.77;9.00;;;;;;;;;;5016405;28;20025;-52
2021/03/22 12:45:59;;;;;;;11.50;6.35;;;;;;;;;;5016226;28;20117;-54
2021/03/22 12:48:25;;;;;;;14.30;9.20;;;;;;;;;;5016254;28;20056;-53
2021/03/22 12:50:52;;;;;;;12.90;8.45;;;;;;;;;;5016117;28;20338;-52
2021/03/22 12:53:18;;;;;;;14.30;8.10;;;;;;;;;;5016107;28;20060;-52
2021/03/22 12:55:45;;;;;;;14.52;9.35;;;;;;;;;;5016019;28;20041;-54
2021/03/22 12:58:16;;;;;;;17.80;9.70;;;;;;;;;;5016124;28;20026;-52
2021/03/22 13:00:42;;;;;;;17.90;11.02;;;;;;;;;;5015949;28;20033;-52
2021/03/22 13:03:10;;;;;;;13.57;8.40;;;;;;;;;;5016288;28;20128;-48
2021/03/22 13:05:36;;;;;;;12.85;8.55;;;;;;;;;;5015745;28;20014;-52
2021/03/22 13:08:02;;;;;;;14.65;8.52;;;;;;;;;;5016101;28;20037;-54
2021/03/22 13:10:31;;;;;;;14.35;9.10;;;;;;;;;;5016023;28;20382;-54
2021/03/22 13:12:57;;;;;;;13.52;7.82;;;;;;;;;;5015703;28;20153;-48
2021/03/22 13:15:37;;;;;;;10.88;7.22;;;;;;;;;;5015596;28;20045;-55
2021/03/22 13:18:09;;;;;;;14.93;9.30;;;;;;;;;;5015538;28;20057;-52
2021/03/22 13:20:36;;;;;;;10.25;6.95;;;;;;;;;;5015789;28;20022;-52
2021/03/22 13:23:02;;;;;;;12.43;8.27;;;;;;;;;;5015794;28;20018;-57
2021/03/22 13:25:28;;;;;;;10.43;6.13;;;;;;;;;;5015847;28;20410;-54
2021/03/22 13:27:54;;;;;;;10.90;6.97;;;;;;;;;;5015535;28;20026;-50
2021/03/22 13:30:24;;;;;;;10.18;7.07;;;;;;;;;;5015399;28;20029;-53
2021/03/22 13:32:51;;;;;;;13.60;8.48;;;;;;;;;;5015643;28;20404;-52
2021/03/22 13:35:19;;;;;;;15.82;9.40;;;;;;;;;;5015313;28;20501;-50
2021/03/22 13:37:45;;;;;;;17.95;10.77;;;;;;;;;;5022932;28;20032;-53
2021/03/22 13:40:12;;;;;;;15.43;9.15;;;;;;;;;;5035090;28;20021;-55
2021/03/22 13:42:38;;;;;;;13.35;8.63;;;;;;;;;;5034855;28;20534;-51
2021/03/22 13:45:05;;;;;;;19.30;11.38;;;;;;;;;;5035149;28;20017;-55
2021/03/22 13:47:31;;;;;;;15.57;9.30;;;;;;;;;;5034661;28;20025;-52
2021/03/22 13:49:57;;;;;;;18.98;10.73;;;;;;;;;;5034533;28;20048;-51
2021/03/22 13:52:25;;;;;;;18.30;11.27;;;;;;;;;;5034224;28;20021;-49
2021/03/22 13:54:52;;;;;;;17.38;9.88;;;;;;;;;;5034715;28;20539;-48
2021/03/22 13:57:18;;;;;;;14.05;8.73;;;;;;;;;;5034874;28;20104;-55
2021/03/22 13:59:44;;;;;;;16.10;9.13;;;;;;;;;;5034863;28;20040;-56
2021/03/22 14:02:12;;;;;;;16.33;10.32;;;;;;;;;;5035083;28;20110;-54
2021/03/22 14:04:38;;;;;;;19.30;11.48;;;;;;;;;;5034695;28;20014;-53
2021/03/22 14:07:04;;;;;;;28.27;14.52;;;;;;;;;;5034358;28;20049;-50
2021/03/22 14:09:30;;;;;;;13.48;8.43;;;;;;;;;;5034855;28;20128;-52
2021/03/22 14:11:56;;;;;;;13.68;9.10;;;;;;;;;;5034668;28;20439;-51
2021/03/22 14:14:23;;;;;;;13.80;8.73;;;;;;;;;;5034154;28;20445;-47
2021/03/22 14:16:49;;;;;;;16.88;9.23;;;;;;;;;;5034256;28;20079;-56
2021/03/22 14:19:15;;;;;;;15.90;9.73;;;;;;;;;;5034838;28;20033;-55
2021/03/22 14:21:41;;;;;;;21.50;12.23;;;;;;;;;;5034563;28;20022;-53
2021/03/22 14:24:08;;;;;;;21.25;12.00;;;;;;;;;;5034398;28;20441;-53
2021/03/22 14:26:34;;;;;;;19.58;10.40;;;;;;;;;;5034500;28;20025;-51
2021/03/22 14:29:00;;;;;;;20.20;12.25;;;;;;;;;;5034044;28;20040;-49
2021/03/22 14:31:28;;;;;;;19.92;11.68;;;;;;;;;;5034756;28;20125;-53
2021/03/22 14:33:55;;;;;;;17.02;10.07;;;;;;;;;;5034080;28;20036;-51
2021/03/22 14:36:24;;;;;;;15.93;9.90;;;;;;;;;;5033880;28;20030;-53
2021/03/22 14:38:50;;;;;;;19.02;10.68;;;;;;;;;;5034111;28;20022;-53
2021/03/22 14:41:16;;;;;;;21.33;11.95;;;;;;;;;;5034430;28;20029;-54
2021/03/22 14:43:43;;;;;;;19.67;12.05;;;;;;;;;;5033674;28;20021;-53
2021/03/22 14:46:09;;;;;;;22.70;13.57;;;;;;;;;;5034147;28;20412;-56
2021/03/22 14:48:36;;;;;;;18.02;10.65;;;;;;;;;;5033894;28;20025;-54
2021/03/22 14:51:02;;;;;;;18.05;11.40;;;;;;;;;;5033995;28;20029;-56